createdAt,value
2018-05-31T00:00:17.775Z,69.90
2018-05-31T00:00:49.139Z,69.80
2018-05-31T00:01:20.486Z,69.80
2018-05-31T00:01:51.820Z,69.60
2018-05-31T00:02:23.187Z,69.50
2018-05-31T00:02:54.543Z,69.40
2018-05-31T00:03:25.919Z,69.40
2018-05-31T00:03:58.796Z,69.30
2018-05-31T00:04:30.147Z,69.20
2018-05-31T00:05:01.498Z,69.20
2018-05-31T00:05:32.843Z,69.10
2018-05-31T00:06:04.254Z,69.10
2018-05-31T00:06:35.622Z,69.10
2018-05-31T00:07:07.719Z,69.20
2018-05-31T00:07:39.062Z,69.20
2018-05-31T00:08:10.411Z,69.40
2018-05-31T00:08:41.751Z,69.10
2018-05-31T00:09:13.126Z,69.00
2018-05-31T00:09:44.427Z,69.10
2018-05-31T00:10:15.762Z,69.00
2018-05-31T00:10:47.140Z,69.00
2018-05-31T00:11:18.490Z,69.00
2018-05-31T00:11:49.855Z,68.70
2018-05-31T00:12:21.938Z,68.80
2018-05-31T00:12:53.279Z,68.80
2018-05-31T00:13:24.632Z,69.00
2018-05-31T00:13:55.999Z,68.80
2018-05-31T00:14:27.410Z,68.80
2018-05-31T00:14:58.784Z,68.90
2018-05-31T00:15:30.139Z,69.00
2018-05-31T00:16:02.239Z,69.10
2018-05-31T00:16:33.582Z,69.10
2018-05-31T00:17:04.947Z,69.10
2018-05-31T00:17:36.287Z,69.00
2018-05-31T00:18:07.618Z,69.50
2018-05-31T00:18:38.971Z,68.90
2018-05-31T00:19:10.324Z,68.80
2018-05-31T00:19:41.735Z,68.90
2018-05-31T00:20:13.083Z,69.00
2018-05-31T00:20:44.435Z,68.90
2018-05-31T00:21:15.800Z,69.30
2018-05-31T00:21:47.895Z,69.30
2018-05-31T00:22:19.231Z,69.30
2018-05-31T00:22:50.583Z,69.20
2018-05-31T00:23:21.918Z,69.20
2018-05-31T00:23:53.267Z,69.20
2018-05-31T00:24:24.624Z,69.20
2018-05-31T00:24:55.986Z,69.40
2018-05-31T00:25:27.338Z,69.40
2018-05-31T00:25:59.427Z,69.70
2018-05-31T00:26:30.799Z,69.70
2018-05-31T00:27:02.151Z,69.60
2018-05-31T00:27:33.500Z,69.60
2018-05-31T00:28:04.868Z,69.60
2018-05-31T00:28:36.943Z,69.50
2018-05-31T00:29:08.295Z,69.60
2018-05-31T00:29:39.631Z,69.70
2018-05-31T00:30:11.011Z,70.00
2018-05-31T00:30:42.378Z,70.10
2018-05-31T00:31:13.723Z,70.10
2018-05-31T00:31:45.795Z,70.00
2018-05-31T00:32:17.138Z,70.00
2018-05-31T00:32:48.491Z,69.90
2018-05-31T00:33:19.861Z,69.80
2018-05-31T00:33:51.200Z,69.90
2018-05-31T00:34:22.548Z,69.90
2018-05-31T00:34:53.911Z,69.80
2018-05-31T00:35:25.274Z,69.80
2018-05-31T00:35:56.655Z,69.70
2018-05-31T00:36:28.005Z,69.40
2018-05-31T00:36:59.354Z,69.30
2018-05-31T00:37:31.480Z,69.20
2018-05-31T00:38:02.863Z,69.20
2018-05-31T00:38:34.210Z,69.20
2018-05-31T00:39:05.559Z,69.00
2018-05-31T00:39:37.675Z,68.90
2018-05-31T00:40:09.014Z,68.90
2018-05-31T00:40:40.372Z,68.80
2018-05-31T00:41:11.734Z,68.80
2018-05-31T00:41:43.103Z,69.00
2018-05-31T00:42:14.462Z,69.10
2018-05-31T00:42:45.815Z,69.30
2018-05-31T00:43:17.163Z,69.30
2018-05-31T00:43:48.499Z,69.20
2018-05-31T00:44:21.352Z,69.20
2018-05-31T00:44:52.696Z,69.10
2018-05-31T00:45:24.054Z,69.10
2018-05-31T00:45:55.467Z,69.00
2018-05-31T00:46:26.835Z,68.60
2018-05-31T00:46:58.183Z,69.20
2018-05-31T00:47:29.536Z,69.00
2018-05-31T00:48:01.639Z,69.10
2018-05-31T00:48:33.015Z,69.10
2018-05-31T00:49:04.371Z,69.00
2018-05-31T00:49:37.198Z,69.00
2018-05-31T00:50:08.567Z,68.90
2018-05-31T00:50:39.923Z,69.00
2018-05-31T00:51:12.107Z,69.40
2018-05-31T00:51:44.198Z,69.50
2018-05-31T00:52:15.552Z,69.50
2018-05-31T00:52:46.883Z,69.40
2018-05-31T00:53:18.259Z,69.50
2018-05-31T00:53:49.603Z,69.50
2018-05-31T00:54:20.959Z,69.60
2018-05-31T00:54:53.054Z,69.50
2018-05-31T00:55:36.712Z,69.50
2018-05-31T00:56:14.304Z,69.50
2018-05-31T00:56:45.651Z,69.30
2018-05-31T00:57:17.767Z,69.50
2018-05-31T00:57:49.114Z,69.50
2018-05-31T00:58:20.503Z,69.60
2018-05-31T00:58:52.606Z,70.00
2018-05-31T00:59:23.966Z,70.00
2018-05-31T00:59:55.306Z,70.00
2018-05-31T01:00:26.692Z,69.90
2018-05-31T01:00:58.795Z,69.80
2018-05-31T01:01:30.188Z,69.80
2018-05-31T01:02:02.279Z,69.90
2018-05-31T01:02:33.639Z,69.90
2018-05-31T01:03:04.983Z,69.90
2018-05-31T01:03:36.344Z,69.80
2018-05-31T01:04:07.703Z,69.70
2018-05-31T01:04:39.795Z,69.70
2018-05-31T01:05:11.143Z,69.60
2018-05-31T01:05:42.491Z,69.50
2018-05-31T01:06:13.843Z,69.30
2018-05-31T01:06:45.206Z,69.20
2018-05-31T01:07:16.555Z,69.30
2018-05-31T01:07:47.911Z,69.40
2018-05-31T01:08:20.011Z,69.60
2018-05-31T01:08:51.371Z,69.60
2018-05-31T01:09:22.743Z,70.40
2018-05-31T01:09:54.830Z,69.70
2018-05-31T01:10:26.176Z,69.70
2018-05-31T01:10:57.527Z,69.60
2018-05-31T01:11:28.868Z,69.50
2018-05-31T01:12:00.300Z,69.50
2018-05-31T01:12:31.643Z,69.60
2018-05-31T01:13:03.039Z,69.50
2018-05-31T01:13:35.859Z,69.70
2018-05-31T01:14:07.238Z,69.70
2018-05-31T01:14:38.632Z,69.70
2018-05-31T01:15:10.004Z,69.70
2018-05-31T01:15:41.375Z,69.80
2018-05-31T01:16:13.479Z,69.70
2018-05-31T01:16:44.855Z,69.70
2018-05-31T01:17:16.248Z,69.60
2018-05-31T01:17:47.653Z,69.50
2018-05-31T01:18:18.983Z,69.30
2018-05-31T01:18:50.319Z,69.20
2018-05-31T01:19:21.677Z,69.30
2018-05-31T01:19:53.774Z,69.50
2018-05-31T01:20:25.114Z,69.50
2018-05-31T01:20:56.487Z,69.40
2018-05-31T01:21:27.851Z,69.40
2018-05-31T01:21:59.191Z,69.50
2018-05-31T01:22:30.538Z,69.50
2018-05-31T01:23:01.895Z,69.50
2018-05-31T01:23:33.254Z,69.60
2018-05-31T01:24:04.602Z,69.60
2018-05-31T01:24:35.947Z,69.50
2018-05-31T01:25:07.290Z,69.50
2018-05-31T01:25:38.654Z,69.50
2018-05-31T01:26:09.994Z,69.40
2018-05-31T01:26:42.147Z,69.50
2018-05-31T01:27:13.503Z,69.50
2018-05-31T01:27:44.871Z,69.30
2018-05-31T01:28:16.952Z,69.10
2018-05-31T01:28:48.295Z,69.10
2018-05-31T01:29:19.638Z,69.10
2018-05-31T01:29:50.975Z,69.00
2018-05-31T01:30:22.311Z,69.00
2018-05-31T01:30:53.658Z,68.90
2018-05-31T01:31:24.995Z,69.00
2018-05-31T01:31:56.338Z,69.10
2018-05-31T01:32:27.691Z,69.30
2018-05-31T01:32:59.063Z,69.40
2018-05-31T01:33:30.403Z,69.40
2018-05-31T01:34:02.510Z,69.50
2018-05-31T01:34:33.894Z,69.50
2018-05-31T01:35:06.007Z,69.50
2018-05-31T01:35:37.342Z,69.40
2018-05-31T01:36:08.682Z,69.40
2018-05-31T01:36:40.007Z,69.60
2018-05-31T01:37:11.294Z,69.70
2018-05-31T01:37:42.663Z,69.80
2018-05-31T01:38:27.142Z,69.80
2018-05-31T01:38:58.522Z,69.90
2018-05-31T01:39:29.879Z,70.00
2018-05-31T01:40:01.246Z,69.90
2018-05-31T01:40:32.621Z,69.90
2018-05-31T01:41:03.995Z,69.80
2018-05-31T01:41:36.110Z,70.20
2018-05-31T01:42:07.460Z,69.60
2018-05-31T01:42:38.806Z,69.70
2018-05-31T01:43:10.171Z,69.80
2018-05-31T01:43:41.559Z,70.00
2018-05-31T01:44:12.918Z,70.00
2018-05-31T01:44:44.307Z,70.20
2018-05-31T01:45:15.651Z,70.30
2018-05-31T01:45:46.991Z,70.10
2018-05-31T01:46:19.099Z,70.20
2018-05-31T01:46:50.424Z,70.20
2018-05-31T01:47:21.758Z,70.00
2018-05-31T01:47:53.094Z,70.00
2018-05-31T01:48:24.439Z,69.90
2018-05-31T01:48:55.801Z,69.80
2018-05-31T01:49:27.166Z,69.90
2018-05-31T01:49:58.514Z,70.10
2018-05-31T01:50:29.855Z,70.10
2018-05-31T01:51:01.203Z,70.40
2018-05-31T01:51:32.543Z,70.40
2018-05-31T01:52:04.662Z,70.60
2018-05-31T01:52:36.002Z,70.60
2018-05-31T01:53:07.346Z,70.70
2018-05-31T01:53:38.726Z,70.80
2018-05-31T01:54:10.842Z,70.70
2018-05-31T01:54:42.199Z,70.70
2018-05-31T01:55:13.543Z,70.80
2018-05-31T01:55:44.891Z,70.60
2018-05-31T01:56:16.235Z,70.50
2018-05-31T01:56:47.582Z,70.50
2018-05-31T01:57:18.954Z,70.40
2018-05-31T01:57:50.268Z,70.60
2018-05-31T01:58:21.614Z,70.70
2018-05-31T01:58:52.954Z,71.30
2018-05-31T01:59:25.071Z,70.70
2018-05-31T01:59:56.403Z,70.80
2018-05-31T02:00:27.757Z,70.60
2018-05-31T02:00:59.100Z,70.40
2018-05-31T02:01:30.439Z,70.30
2018-05-31T02:02:01.775Z,70.30
2018-05-31T02:02:33.123Z,70.30
2018-05-31T02:03:04.475Z,70.40
2018-05-31T02:03:35.818Z,70.30
2018-05-31T02:04:07.910Z,70.20
2018-05-31T02:04:39.270Z,70.20
2018-05-31T02:05:10.607Z,70.10
2018-05-31T02:05:41.958Z,70.00
2018-05-31T02:06:13.299Z,70.00
2018-05-31T02:06:44.671Z,70.20
2018-05-31T02:07:16.034Z,70.40
2018-05-31T02:07:47.408Z,70.50
2018-05-31T02:08:18.779Z,70.50
2018-05-31T02:08:50.152Z,70.70
2018-05-31T02:09:22.247Z,70.60
2018-05-31T02:09:53.627Z,70.60
2018-05-31T02:10:24.931Z,70.80
2018-05-31T02:10:56.299Z,70.70
2018-05-31T02:11:27.635Z,70.70
2018-05-31T02:11:58.975Z,70.80
2018-05-31T02:12:30.312Z,71.00
2018-05-31T02:13:01.695Z,71.10
2018-05-31T02:13:33.064Z,71.00
2018-05-31T02:14:04.467Z,71.10
2018-05-31T02:14:35.843Z,71.20
2018-05-31T02:15:07.269Z,71.30
2018-05-31T02:15:38.623Z,71.20
2018-05-31T02:16:09.967Z,71.20
2018-05-31T02:16:41.331Z,71.10
2018-05-31T02:17:12.724Z,71.20
2018-05-31T02:17:44.070Z,71.40
2018-05-31T02:18:15.447Z,71.30
2018-05-31T02:18:46.799Z,71.40
2018-05-31T02:19:18.135Z,71.30
2018-05-31T02:19:49.487Z,71.10
2018-05-31T02:20:20.882Z,71.10
2018-05-31T02:20:52.230Z,71.10
2018-05-31T02:21:23.574Z,71.20
2018-05-31T02:21:54.929Z,71.30
2018-05-31T02:22:26.276Z,71.80
2018-05-31T02:22:57.638Z,71.10
2018-05-31T02:23:29.730Z,70.90
2018-05-31T02:24:01.106Z,70.90
2018-05-31T02:24:32.463Z,70.80
2018-05-31T02:25:03.843Z,70.90
2018-05-31T02:25:35.955Z,71.00
2018-05-31T02:26:07.323Z,70.90
2018-05-31T02:26:39.419Z,71.30
2018-05-31T02:27:10.746Z,71.30
2018-05-31T02:27:42.827Z,71.30
2018-05-31T02:28:14.174Z,71.40
2018-05-31T02:28:45.514Z,71.30
2018-05-31T02:29:16.846Z,71.30
2018-05-31T02:29:48.190Z,71.20
2018-05-31T02:30:19.525Z,71.30
2018-05-31T02:30:50.894Z,71.40
2018-05-31T02:31:22.246Z,71.30
2018-05-31T02:31:53.587Z,71.30
2018-05-31T02:32:24.923Z,71.30
2018-05-31T02:32:56.270Z,71.20
2018-05-31T02:33:28.367Z,71.30
2018-05-31T02:33:59.726Z,71.20
2018-05-31T02:34:31.059Z,71.40
2018-05-31T02:35:02.432Z,71.50
2018-05-31T02:35:34.546Z,71.70
2018-05-31T02:36:05.955Z,71.70
2018-05-31T02:36:38.042Z,71.90
2018-05-31T02:37:09.403Z,71.80
2018-05-31T02:37:40.762Z,71.80
2018-05-31T02:38:12.950Z,71.80
2018-05-31T02:38:44.298Z,71.50
2018-05-31T02:39:15.679Z,71.70
2018-05-31T02:39:47.057Z,71.70
2018-05-31T02:40:18.423Z,71.60
2018-05-31T02:40:50.503Z,72.00
2018-05-31T02:41:21.899Z,71.40
2018-05-31T02:41:53.235Z,71.40
2018-05-31T02:42:25.347Z,71.70
2018-05-31T02:42:56.694Z,71.70
2018-05-31T02:43:28.034Z,71.70
2018-05-31T02:43:59.371Z,71.80
2018-05-31T02:44:30.707Z,71.80
2018-05-31T02:45:02.068Z,71.80
2018-05-31T02:45:33.403Z,71.80
2018-05-31T02:46:04.755Z,71.70
2018-05-31T02:46:36.130Z,71.70
2018-05-31T02:47:07.475Z,71.60
2018-05-31T02:47:39.567Z,71.50
2018-05-31T02:48:10.936Z,71.50
2018-05-31T02:48:42.350Z,71.40
2018-05-31T02:49:13.686Z,71.40
2018-05-31T02:49:45.034Z,71.50
2018-05-31T02:50:16.370Z,71.60
2018-05-31T02:50:47.702Z,71.60
2018-05-31T02:51:19.035Z,71.60
2018-05-31T02:51:50.410Z,71.60
2018-05-31T02:52:21.763Z,71.60
2018-05-31T02:52:53.136Z,71.70
2018-05-31T02:53:25.224Z,71.60
2018-05-31T02:53:56.567Z,71.60
2018-05-31T02:54:27.923Z,71.60
2018-05-31T02:54:59.270Z,71.60
2018-05-31T02:55:30.615Z,71.60
2018-05-31T02:56:01.959Z,71.70
2018-05-31T02:56:33.299Z,71.80
2018-05-31T02:57:04.702Z,71.90
2018-05-31T02:57:36.051Z,71.80
2018-05-31T02:58:07.382Z,71.60
2018-05-31T02:58:38.742Z,71.50
2018-05-31T02:59:10.090Z,71.30
2018-05-31T02:59:41.431Z,71.30
2018-05-31T03:00:12.795Z,71.00
2018-05-31T03:00:44.127Z,71.00
2018-05-31T03:01:15.479Z,71.00
2018-05-31T03:01:46.810Z,71.20
2018-05-31T03:02:18.178Z,71.40
2018-05-31T03:02:50.259Z,71.60
2018-05-31T03:03:21.626Z,71.60
2018-05-31T03:03:52.981Z,71.60
2018-05-31T03:04:24.323Z,71.70
2018-05-31T03:04:55.678Z,71.70
2018-05-31T03:05:27.773Z,71.40
2018-05-31T03:05:59.119Z,71.30
2018-05-31T03:06:30.495Z,71.10
2018-05-31T03:07:01.844Z,71.20
2018-05-31T03:07:33.226Z,71.20
2018-05-31T03:08:04.574Z,71.20
2018-05-31T03:08:35.942Z,71.20
2018-05-31T03:09:07.330Z,71.20
2018-05-31T03:09:38.659Z,71.20
2018-05-31T03:10:10.030Z,71.10
2018-05-31T03:10:41.407Z,71.10
2018-05-31T03:11:12.759Z,71.20
2018-05-31T03:11:44.100Z,71.30
2018-05-31T03:12:15.427Z,71.30
2018-05-31T03:12:46.826Z,71.20
2018-05-31T03:13:18.911Z,71.20
2018-05-31T03:13:50.266Z,71.20
2018-05-31T03:14:21.598Z,71.30
2018-05-31T03:14:52.947Z,71.50
2018-05-31T03:15:24.323Z,71.50
2018-05-31T03:15:56.412Z,71.60
2018-05-31T03:16:27.758Z,71.50
2018-05-31T03:16:59.107Z,71.60
2018-05-31T03:17:30.448Z,71.60
2018-05-31T03:18:01.876Z,71.70
2018-05-31T03:18:33.227Z,71.90
2018-05-31T03:19:04.570Z,71.90
2018-05-31T03:19:35.906Z,72.10
2018-05-31T03:20:07.235Z,72.20
2018-05-31T03:20:38.575Z,72.30
2018-05-31T03:21:09.923Z,72.30
2018-05-31T03:21:41.270Z,72.40
2018-05-31T03:22:12.619Z,72.50
2018-05-31T03:22:43.975Z,72.50
2018-05-31T03:23:15.339Z,72.60
2018-05-31T03:23:46.675Z,72.70
2018-05-31T03:24:18.035Z,72.60
2018-05-31T03:24:50.122Z,72.70
2018-05-31T03:25:21.462Z,72.70
2018-05-31T03:25:52.799Z,72.70
2018-05-31T03:26:24.136Z,72.80
2018-05-31T03:26:55.480Z,72.90
2018-05-31T03:27:26.826Z,72.90
2018-05-31T03:27:58.175Z,72.90
2018-05-31T03:28:29.548Z,72.80
2018-05-31T03:29:01.651Z,72.70
2018-05-31T03:29:32.983Z,72.60
2018-05-31T03:30:04.353Z,72.50
2018-05-31T03:30:35.717Z,72.60
2018-05-31T03:31:07.056Z,72.60
2018-05-31T03:31:38.411Z,72.60
2018-05-31T03:32:10.507Z,72.10
2018-05-31T03:32:41.874Z,72.40
2018-05-31T03:33:13.215Z,72.50
2018-05-31T03:33:44.588Z,72.40
2018-05-31T03:34:20.271Z,72.50
2018-05-31T03:34:51.607Z,72.50
2018-05-31T03:35:23.704Z,72.30
2018-05-31T03:35:55.066Z,72.30
2018-05-31T03:36:27.174Z,72.10
2018-05-31T03:36:58.470Z,72.00
2018-05-31T03:37:30.566Z,72.10
2018-05-31T03:38:01.946Z,72.10
2018-05-31T03:38:33.316Z,72.10
2018-05-31T03:39:05.439Z,71.90
2018-05-31T03:39:36.776Z,72.00
2018-05-31T03:40:08.130Z,72.00
2018-05-31T03:40:39.503Z,72.40
2018-05-31T03:41:11.592Z,71.60
2018-05-31T03:41:42.967Z,71.60
2018-05-31T03:42:14.315Z,71.50
2018-05-31T03:42:45.679Z,71.50
2018-05-31T03:43:17.766Z,71.70
2018-05-31T03:43:49.139Z,71.70
2018-05-31T03:44:20.512Z,71.80
2018-05-31T03:44:52.614Z,72.00
2018-05-31T03:45:23.951Z,72.00
2018-05-31T03:45:55.290Z,72.00
2018-05-31T03:46:26.627Z,72.00
2018-05-31T03:46:57.991Z,72.10
2018-05-31T03:47:29.360Z,71.90
2018-05-31T03:48:00.682Z,71.90
2018-05-31T03:48:32.027Z,72.10
2018-05-31T03:49:04.131Z,72.00
2018-05-31T03:49:35.516Z,72.00
2018-05-31T03:50:06.859Z,71.90
2018-05-31T03:50:38.194Z,71.90
2018-05-31T03:51:09.555Z,71.80
2018-05-31T03:51:41.666Z,71.30
2018-05-31T03:52:13.027Z,71.80
2018-05-31T03:52:44.379Z,71.70
2018-05-31T03:53:17.211Z,71.80
2018-05-31T03:53:48.551Z,71.80
2018-05-31T03:54:19.882Z,71.90
2018-05-31T03:54:51.251Z,71.80
2018-05-31T03:55:22.611Z,71.80
2018-05-31T03:55:53.956Z,71.70
2018-05-31T03:56:25.295Z,71.60
2018-05-31T03:56:56.635Z,71.50
2018-05-31T03:57:29.472Z,71.80
2018-05-31T03:58:00.836Z,71.80
2018-05-31T03:58:32.171Z,71.80
2018-05-31T03:59:03.528Z,71.80
2018-05-31T03:59:34.879Z,72.00
2018-05-31T04:00:07.011Z,72.20
2018-05-31T04:00:38.368Z,72.20
2018-05-31T04:01:10.483Z,72.30
2018-05-31T04:01:41.830Z,72.30
2018-05-31T04:02:13.175Z,72.30
2018-05-31T04:02:44.535Z,72.40
2018-05-31T04:03:15.886Z,72.50
2018-05-31T04:03:47.235Z,72.30
2018-05-31T04:04:18.579Z,72.30
2018-05-31T04:04:49.922Z,72.40
2018-05-31T04:05:21.290Z,72.40
2018-05-31T04:05:52.647Z,72.30
2018-05-31T04:06:23.986Z,72.30
2018-05-31T04:06:55.330Z,72.30
2018-05-31T04:07:26.662Z,72.20
2018-05-31T04:07:58.007Z,72.20
2018-05-31T04:08:29.368Z,72.10
2018-05-31T04:09:00.734Z,72.30
2018-05-31T04:09:32.079Z,72.30
2018-05-31T04:10:04.203Z,72.20
2018-05-31T04:10:35.567Z,72.10
2018-05-31T04:11:06.917Z,72.10
2018-05-31T04:11:39.029Z,72.10
2018-05-31T04:12:10.386Z,72.10
2018-05-31T04:12:41.748Z,72.20
2018-05-31T04:13:13.105Z,72.20
2018-05-31T04:13:45.199Z,72.30
2018-05-31T04:14:16.567Z,72.30
2018-05-31T04:14:47.939Z,72.30
2018-05-31T04:15:20.045Z,72.30
2018-05-31T04:15:51.459Z,72.30
2018-05-31T04:16:22.827Z,72.20
2018-05-31T04:16:54.199Z,72.10
2018-05-31T04:17:25.539Z,72.00
2018-05-31T04:17:56.899Z,71.90
2018-05-31T04:18:28.991Z,72.50
2018-05-31T04:19:00.339Z,72.10
2018-05-31T04:19:31.691Z,72.10
2018-05-31T04:20:03.071Z,72.10
2018-05-31T04:20:34.407Z,72.00
2018-05-31T04:21:06.540Z,71.80
2018-05-31T04:21:37.908Z,71.80
2018-05-31T04:22:09.242Z,71.90
2018-05-31T04:22:41.355Z,71.90
2018-05-31T04:23:12.756Z,71.90
2018-05-31T04:23:44.843Z,71.90
2018-05-31T04:24:16.194Z,71.90
2018-05-31T04:24:47.536Z,72.00
2018-05-31T04:25:18.879Z,71.90
2018-05-31T04:25:50.215Z,71.90
2018-05-31T04:26:21.610Z,71.90
2018-05-31T04:26:53.703Z,71.90
2018-05-31T04:27:25.007Z,71.90
2018-05-31T04:27:56.351Z,71.80
2018-05-31T04:28:27.730Z,71.60
2018-05-31T04:28:59.070Z,71.40
2018-05-31T04:29:30.418Z,71.30
2018-05-31T04:30:01.780Z,71.50
2018-05-31T04:30:33.138Z,71.70
2018-05-31T04:31:05.240Z,72.10
2018-05-31T04:31:36.616Z,71.80
2018-05-31T04:32:07.975Z,71.80
2018-05-31T04:32:39.318Z,71.60
2018-05-31T04:33:10.663Z,71.50
2018-05-31T04:33:42.768Z,71.50
2018-05-31T04:34:14.128Z,71.40
2018-05-31T04:34:45.484Z,71.50
2018-05-31T04:35:16.831Z,71.60
2018-05-31T04:35:48.175Z,71.70
2018-05-31T04:36:20.279Z,71.80
2018-05-31T04:36:51.663Z,71.80
2018-05-31T04:37:23.007Z,71.70
2018-05-31T04:37:54.374Z,71.80
2018-05-31T04:38:25.754Z,72.00
2018-05-31T04:38:57.091Z,72.00
2018-05-31T04:39:28.443Z,72.00
2018-05-31T04:39:59.799Z,71.90
2018-05-31T04:40:31.150Z,72.10
2018-05-31T04:41:02.495Z,72.10
2018-05-31T04:41:33.843Z,72.00
2018-05-31T04:42:05.218Z,71.90
2018-05-31T04:42:36.560Z,71.80
2018-05-31T04:43:07.939Z,71.80
2018-05-31T04:43:39.291Z,71.80
2018-05-31T04:44:11.398Z,71.90
2018-05-31T04:44:42.779Z,71.90
2018-05-31T04:45:14.142Z,72.00
2018-05-31T04:45:45.479Z,71.90
2018-05-31T04:46:17.579Z,71.90
2018-05-31T04:46:48.954Z,71.80
2018-05-31T04:47:20.337Z,72.00
2018-05-31T04:47:52.455Z,72.00
2018-05-31T04:48:23.791Z,72.00
2018-05-31T04:48:55.158Z,72.00
2018-05-31T04:49:26.505Z,72.00
2018-05-31T04:49:58.599Z,71.90
2018-05-31T04:50:29.938Z,71.90
2018-05-31T04:51:01.280Z,71.90
2018-05-31T04:51:32.626Z,71.80
2018-05-31T04:52:03.990Z,71.70
2018-05-31T04:52:35.451Z,71.40
2018-05-31T04:53:06.795Z,71.40
2018-05-31T04:53:38.958Z,71.20
2018-05-31T04:54:10.243Z,71.20
2018-05-31T04:54:41.587Z,71.10
2018-05-31T04:55:12.935Z,71.10
2018-05-31T04:55:44.268Z,71.20
2018-05-31T04:56:15.602Z,71.20
2018-05-31T04:56:46.951Z,71.00
2018-05-31T04:57:18.327Z,70.80
2018-05-31T04:57:50.464Z,70.60
2018-05-31T04:58:21.818Z,70.50
2018-05-31T04:58:53.151Z,70.30
2018-05-31T04:59:24.495Z,70.20
2018-05-31T04:59:55.839Z,70.00
2018-05-31T05:00:27.183Z,70.00
2018-05-31T05:00:58.531Z,70.20
2018-05-31T05:01:30.635Z,70.30
2018-05-31T05:02:01.987Z,70.30
2018-05-31T05:02:33.327Z,70.30
2018-05-31T05:03:04.794Z,70.10
2018-05-31T05:03:36.094Z,70.00
2018-05-31T05:04:07.520Z,70.60
2018-05-31T05:04:39.618Z,69.90
2018-05-31T05:05:10.970Z,69.90
2018-05-31T05:05:42.366Z,69.70
2018-05-31T05:06:13.728Z,69.70
2018-05-31T05:06:45.107Z,69.70
2018-05-31T05:07:17.231Z,69.60
2018-05-31T05:07:48.615Z,69.60
2018-05-31T05:08:20.015Z,69.70
2018-05-31T05:08:51.349Z,69.80
2018-05-31T05:09:22.707Z,69.80
2018-05-31T05:09:54.062Z,69.70
2018-05-31T05:10:25.398Z,69.60
2018-05-31T05:10:56.748Z,69.50
2018-05-31T05:11:28.090Z,69.40
2018-05-31T05:12:00.195Z,69.30
2018-05-31T05:12:31.551Z,69.40
2018-05-31T05:13:02.907Z,69.40
2018-05-31T05:13:34.292Z,69.40
2018-05-31T05:14:06.363Z,69.00
2018-05-31T05:14:37.710Z,68.90
2018-05-31T05:15:09.055Z,68.80
2018-05-31T05:15:40.404Z,68.80
2018-05-31T05:16:11.790Z,68.80
2018-05-31T05:16:43.898Z,69.10
2018-05-31T05:17:15.255Z,68.70
2018-05-31T05:17:46.623Z,68.60
2018-05-31T05:18:17.995Z,68.60
2018-05-31T05:18:49.366Z,68.60
2018-05-31T05:19:20.735Z,68.90
2018-05-31T05:19:52.079Z,68.10
2018-05-31T05:20:23.427Z,68.00
2018-05-31T05:20:54.779Z,67.80
2018-05-31T05:21:26.874Z,68.10
2018-05-31T05:21:58.226Z,68.10
2018-05-31T05:22:29.570Z,67.90
2018-05-31T05:23:00.923Z,67.80
2018-05-31T05:23:32.271Z,67.70
2018-05-31T05:24:03.683Z,67.40
2018-05-31T05:24:35.015Z,67.40
2018-05-31T05:25:06.372Z,67.30
2018-05-31T05:25:37.716Z,67.40
2018-05-31T05:26:09.056Z,67.60
2018-05-31T05:26:40.390Z,67.40
2018-05-31T05:27:11.719Z,67.40
2018-05-31T05:27:43.080Z,67.40
2018-05-31T05:28:14.419Z,67.30
2018-05-31T05:28:45.767Z,67.40
2018-05-31T05:29:17.139Z,67.40
2018-05-31T05:29:49.223Z,67.80
2018-05-31T05:30:20.584Z,67.80
2018-05-31T05:30:51.939Z,67.80
2018-05-31T05:31:23.302Z,67.90
2018-05-31T05:31:54.649Z,67.90
2018-05-31T05:32:26.041Z,67.80
2018-05-31T05:32:57.378Z,67.60
2018-05-31T05:33:28.739Z,67.70
2018-05-31T05:34:00.075Z,67.70
2018-05-31T05:34:31.447Z,67.40
2018-05-31T05:35:02.832Z,67.40
2018-05-31T05:35:34.212Z,67.60
2018-05-31T05:36:05.554Z,67.80
2018-05-31T05:36:36.902Z,67.70
2018-05-31T05:37:08.998Z,67.50
2018-05-31T05:37:40.351Z,67.50
2018-05-31T05:38:11.718Z,67.40
2018-05-31T05:38:43.066Z,67.40
2018-05-31T05:39:14.450Z,67.10
2018-05-31T05:39:45.858Z,67.10
2018-05-31T05:40:17.195Z,67.10
2018-05-31T05:40:48.551Z,67.30
2018-05-31T05:41:19.915Z,67.40
2018-05-31T05:41:51.319Z,67.40
2018-05-31T05:42:22.667Z,67.30
2018-05-31T05:42:54.768Z,67.20
2018-05-31T05:43:26.132Z,67.20
2018-05-31T05:43:57.481Z,67.10
2018-05-31T05:44:28.835Z,66.50
2018-05-31T05:45:00.204Z,67.10
2018-05-31T05:45:31.578Z,66.10
2018-05-31T05:46:02.966Z,66.10
2018-05-31T05:46:35.052Z,65.70
2018-05-31T05:47:06.407Z,65.60
2018-05-31T05:47:37.742Z,65.50
2018-05-31T05:48:09.094Z,65.30
2018-05-31T05:48:40.444Z,65.50
2018-05-31T05:49:11.779Z,65.40
2018-05-31T05:49:43.130Z,64.60
2018-05-31T05:50:14.541Z,64.50
2018-05-31T05:50:46.632Z,63.70
2018-05-31T05:51:17.961Z,63.60
2018-05-31T05:51:49.317Z,63.50
2018-05-31T05:52:20.666Z,63.70
2018-05-31T05:52:52.035Z,63.70
2018-05-31T05:53:24.138Z,63.50
2018-05-31T05:53:55.487Z,63.50
2018-05-31T05:54:26.839Z,63.90
2018-05-31T05:54:58.194Z,64.00
2018-05-31T05:55:29.572Z,63.40
2018-05-31T05:56:00.936Z,62.80
2018-05-31T05:56:32.338Z,62.90
2018-05-31T05:57:03.651Z,62.80
2018-05-31T05:57:35.011Z,62.60
2018-05-31T05:58:07.107Z,62.90
2018-05-31T05:58:38.455Z,63.00
2018-05-31T05:59:09.819Z,63.10
2018-05-31T05:59:41.178Z,62.90
2018-05-31T06:00:12.534Z,63.20
2018-05-31T06:00:44.659Z,63.60
2018-05-31T06:01:16.039Z,63.60
2018-05-31T06:01:47.420Z,63.40
2018-05-31T06:02:18.759Z,63.40
2018-05-31T06:02:50.102Z,63.20
2018-05-31T06:03:21.488Z,63.30
2018-05-31T06:03:52.830Z,63.10
2018-05-31T06:04:24.923Z,62.30
2018-05-31T06:04:56.283Z,62.20
2018-05-31T06:05:27.637Z,62.50
2018-05-31T06:06:00.491Z,62.60
2018-05-31T06:06:31.843Z,62.50
2018-05-31T06:07:03.211Z,62.50
2018-05-31T06:07:34.559Z,62.60
2018-05-31T06:08:06.660Z,63.00
2018-05-31T06:08:38.012Z,63.00
2018-05-31T06:09:09.363Z,63.10
2018-05-31T06:09:40.723Z,63.70
2018-05-31T19:48:18.199Z,60.50
2018-05-31T19:48:49.558Z,60.40
2018-05-31T19:49:20.905Z,60.30
2018-05-31T19:49:52.251Z,60.60
2018-05-31T19:50:23.630Z,60.90
2018-05-31T19:50:55.111Z,60.90
2018-05-31T19:51:32.530Z,61.10
2018-05-31T19:52:11.109Z,61.10
2018-05-31T19:52:48.795Z,61.00
2018-05-31T19:53:27.155Z,60.70
2018-05-31T19:53:59.390Z,59.80
2018-05-31T19:54:30.831Z,59.70
2018-05-31T19:55:02.215Z,59.70
2018-05-31T19:55:33.559Z,60.00
2018-05-31T19:56:04.907Z,60.50
2018-05-31T19:56:36.487Z,60.50
2018-05-31T19:57:08.003Z,60.30
2018-05-31T19:57:45.550Z,60.50
2018-05-31T19:58:23.055Z,60.70
2018-05-31T19:59:00.402Z,60.60
2018-05-31T19:59:37.667Z,60.40
2018-05-31T20:00:15.227Z,60.40
2018-05-31T20:00:53.536Z,60.00
2018-05-31T20:01:31.043Z,60.10
2018-05-31T20:02:08.299Z,60.20
2018-05-31T20:02:46.368Z,60.20
2018-05-31T20:03:23.714Z,60.30
2018-05-31T20:03:55.019Z,60.10
2018-05-31T20:04:26.379Z,60.00
2018-05-31T20:04:57.719Z,59.80
2018-05-31T20:05:29.055Z,59.50
2018-05-31T20:06:00.400Z,59.70
2018-05-31T20:06:31.947Z,60.50
2018-05-31T20:07:04.403Z,60.80
2018-05-31T20:07:35.770Z,60.80
2018-05-31T20:08:07.115Z,61.10
2018-05-31T20:08:39.403Z,61.40
2018-05-31T20:09:10.722Z,61.40
2018-05-31T20:09:42.143Z,61.30
2018-05-31T20:10:13.647Z,61.20
2018-05-31T20:10:45.683Z,61.20
2018-05-31T20:11:17.066Z,61.10
2018-05-31T20:11:48.419Z,61.00
2018-05-31T20:12:21.258Z,61.30
2018-05-31T20:12:51.779Z,61.10
2018-05-31T20:13:23.831Z,60.80
2018-05-31T20:13:55.863Z,60.80
2018-05-31T20:14:27.993Z,61.00
2018-05-31T20:14:59.319Z,60.90
2018-05-31T20:15:30.622Z,61.40
2018-05-31T20:16:01.991Z,61.60
2018-05-31T20:16:33.292Z,61.80
2018-05-31T20:17:11.668Z,61.80
2018-05-31T20:17:43.255Z,61.80
2018-05-31T20:18:14.587Z,61.70
2018-05-31T20:18:45.874Z,61.50
2018-05-31T20:19:17.159Z,61.60
2018-05-31T20:19:48.458Z,61.60
2018-05-31T20:20:19.885Z,61.50
2018-05-31T20:20:51.359Z,61.50
2018-05-31T20:21:22.887Z,61.70
2018-05-31T20:21:54.183Z,61.80
2018-05-31T20:22:26.223Z,61.50
2018-05-31T20:22:58.306Z,61.50
2018-05-31T20:23:29.735Z,61.50
2018-05-31T20:24:01.267Z,61.30
2018-05-31T20:24:32.602Z,61.60
2018-05-31T20:25:03.963Z,61.70
2018-05-31T20:25:35.304Z,61.60